createdAt,value
2019-03-06T00:02:14.978Z,2.00
2019-03-06T00:04:44.806Z,1.90
2019-03-06T00:07:14.502Z,1.97
2019-03-06T00:09:44.255Z,2.00
2019-03-06T00:12:14.015Z,1.90
2019-03-06T00:14:45.299Z,1.97
2019-03-06T00:17:15.065Z,2.30
2019-03-06T00:19:44.867Z,2.30
2019-03-06T00:22:14.640Z,2.40
2019-03-06T00:24:44.438Z,2.50
2019-03-06T00:27:14.237Z,1.90
2019-03-06T00:29:43.988Z,2.33
2019-03-06T00:32:13.829Z,2.33
2019-03-06T00:34:43.585Z,2.10
2019-03-06T00:37:13.846Z,2.60
2019-03-06T00:39:52.257Z,2.20
2019-03-06T00:42:22.050Z,2.43
2019-03-06T00:44:51.845Z,2.13
2019-03-06T00:47:22.162Z,2.73
2019-03-06T00:49:51.883Z,2.30
2019-03-06T00:52:21.634Z,2.33
2019-03-06T00:54:51.370Z,2.50
2019-03-06T00:57:21.222Z,2.50
2019-03-06T00:59:51.222Z,2.93
2019-03-06T01:02:21.095Z,2.60
2019-03-06T01:04:50.895Z,2.83
2019-03-06T01:07:22.538Z,3.17
2019-03-06T01:09:54.682Z,2.70
2019-03-06T01:12:24.401Z,2.93
2019-03-06T01:14:54.211Z,3.23
2019-03-06T01:17:24.195Z,3.10
2019-03-06T01:19:53.959Z,3.13
2019-03-06T01:22:23.952Z,3.17
2019-03-06T01:24:53.738Z,3.20
2019-03-06T01:27:23.535Z,3.10
2019-03-06T01:29:53.438Z,3.20
2019-03-06T01:32:23.518Z,3.03
2019-03-06T01:35:19.595Z,2.83
2019-03-06T01:38:26.326Z,2.93
2019-03-06T01:41:17.874Z,3.00
2019-03-06T01:43:52.020Z,3.20
2019-03-06T01:46:21.758Z,3.03
2019-03-06T01:48:51.602Z,3.00
2019-03-06T01:51:21.303Z,3.13
2019-03-06T01:53:51.101Z,3.10
2019-03-06T01:56:20.905Z,3.23
2019-03-06T01:58:50.729Z,2.80
2019-03-06T02:01:20.633Z,2.90
2019-03-06T02:03:50.455Z,2.63
2019-03-06T02:06:20.339Z,2.90
2019-03-06T02:08:50.956Z,3.23
2019-03-06T02:11:21.019Z,3.00
2019-03-06T02:13:50.818Z,2.83
2019-03-06T02:16:20.678Z,3.10
2019-03-06T02:18:50.542Z,2.70
2019-03-06T02:21:20.258Z,3.17
2019-03-06T02:23:49.951Z,2.80
2019-03-06T02:26:19.614Z,2.87
2019-03-06T02:28:49.333Z,3.37
2019-03-06T02:31:19.216Z,3.40
2019-03-06T02:33:49.001Z,3.20
2019-03-06T02:36:18.769Z,3.40
2019-03-06T02:38:48.619Z,3.70
2019-03-06T02:41:18.574Z,3.50
2019-03-06T02:43:48.410Z,3.70
2019-03-06T02:46:22.842Z,3.37
2019-03-06T02:48:52.803Z,4.20
2019-03-06T02:51:22.691Z,4.10
2019-03-06T02:53:52.567Z,3.70
2019-03-06T02:56:22.539Z,4.00
2019-03-06T02:59:06.971Z,4.20
2019-03-06T03:01:50.575Z,4.00
2019-03-06T03:04:27.962Z,3.97
2019-03-06T03:07:06.873Z,4.30
2019-03-06T03:09:37.085Z,4.47
2019-03-06T03:12:06.959Z,4.83
2019-03-06T03:14:36.716Z,4.93
2019-03-06T03:17:06.507Z,4.53
2019-03-06T03:19:36.283Z,4.40
2019-03-06T03:22:06.829Z,4.50
2019-03-06T03:24:36.673Z,4.47
2019-03-06T03:27:06.660Z,4.67
2019-03-06T03:29:36.479Z,5.00
2019-03-06T03:32:06.336Z,4.77
2019-03-06T03:34:36.247Z,4.40
2019-03-06T03:37:06.067Z,4.50
2019-03-06T03:39:35.867Z,4.50
2019-03-06T03:42:07.443Z,4.27
2019-03-06T03:44:37.126Z,4.40
2019-03-06T03:47:06.863Z,4.40
2019-03-06T03:49:36.670Z,4.10
2019-03-06T03:52:06.531Z,4.00
2019-03-06T03:54:36.476Z,4.07
2019-03-06T03:57:06.320Z,4.37
2019-03-06T03:59:36.134Z,4.40
2019-03-06T04:02:05.927Z,4.17
2019-03-06T04:04:35.823Z,4.20
2019-03-06T04:07:05.749Z,4.23
2019-03-06T04:09:35.508Z,4.37
2019-03-06T04:12:05.204Z,3.87
2019-03-06T04:14:34.939Z,4.97
2019-03-06T04:17:04.687Z,4.30
2019-03-06T04:19:34.789Z,3.90
2019-03-06T04:22:04.681Z,3.87
2019-03-06T04:24:34.408Z,4.53
2019-03-06T04:27:04.195Z,4.00
2019-03-06T04:29:33.926Z,4.10
2019-03-06T04:32:03.692Z,3.87
2019-03-06T04:34:33.516Z,4.43
2019-03-06T04:37:03.260Z,4.17
2019-03-06T04:39:33.033Z,4.53
2019-03-06T04:42:02.904Z,4.20
2019-03-06T04:44:32.619Z,4.80
2019-03-06T04:47:02.924Z,4.20
2019-03-06T04:49:32.751Z,4.57
2019-03-06T04:52:03.371Z,4.30
2019-03-06T04:54:33.072Z,4.60
2019-03-06T04:57:02.950Z,4.73
2019-03-06T04:59:32.760Z,4.50
2019-03-06T05:02:02.491Z,4.40
2019-03-06T05:04:32.279Z,4.50
2019-03-06T05:07:02.079Z,4.30
2019-03-06T05:09:31.890Z,4.50
2019-03-06T05:12:01.702Z,4.50
2019-03-06T05:14:32.755Z,4.40
2019-03-06T05:17:30.384Z,4.33
2019-03-06T05:20:00.275Z,4.20
2019-03-06T05:22:30.162Z,4.90
2019-03-06T05:25:00.232Z,4.43
2019-03-06T05:27:30.057Z,4.63
2019-03-06T05:30:00.348Z,4.50
2019-03-06T05:32:34.710Z,4.33
2019-03-06T05:35:17.538Z,4.77
2019-03-06T05:37:59.581Z,4.60
2019-03-06T05:40:29.362Z,4.70
2019-03-06T05:42:59.198Z,4.17
2019-03-06T05:45:28.973Z,4.00
2019-03-06T05:47:58.740Z,3.63
2019-03-06T05:50:28.597Z,3.63
2019-03-06T05:52:58.340Z,3.63
2019-03-06T05:55:28.091Z,3.63
2019-03-06T05:57:57.923Z,3.90
2019-03-06T06:00:28.181Z,4.00
2019-03-06T06:02:57.912Z,4.53
2019-03-06T06:05:27.596Z,4.27
2019-03-06T06:07:57.471Z,4.73
2019-03-06T06:10:27.268Z,4.90
2019-03-06T06:12:57.142Z,4.77
2019-03-06T06:15:26.963Z,6.17
2019-03-06T06:17:56.726Z,4.93
2019-03-06T06:20:26.506Z,4.90
2019-03-06T06:23:18.686Z,4.77
2019-03-06T06:25:48.367Z,4.80
2019-03-06T06:28:18.206Z,5.60
2019-03-06T06:30:47.995Z,6.37
2019-03-06T06:33:21.357Z,6.47
2019-03-06T06:35:51.399Z,6.63
2019-03-06T06:38:21.107Z,6.07
2019-03-06T06:40:51.413Z,5.00
2019-03-06T06:43:21.505Z,4.50
2019-03-06T06:45:51.292Z,4.37
2019-03-06T06:48:42.801Z,4.33
2019-03-06T06:51:50.992Z,4.93
2019-03-06T06:54:46.902Z,4.10
2019-03-06T06:57:53.710Z,4.37
2019-03-06T07:01:17.969Z,4.37
2019-03-06T07:04:32.097Z,4.00
2019-03-06T07:07:10.665Z,4.23
2019-03-06T07:09:55.209Z,4.47
2019-03-06T07:12:42.222Z,4.50
2019-03-06T07:15:30.908Z,4.13
2019-03-06T07:18:28.545Z,3.80
2019-03-06T07:21:12.377Z,3.60
2019-03-06T07:23:53.370Z,4.10
2019-03-06T07:26:51.429Z,4.83
2019-03-06T07:29:40.072Z,3.50
2019-03-06T07:32:27.261Z,4.40
2019-03-06T07:35:54.125Z,3.37
2019-03-06T07:38:24.210Z,4.00
2019-03-06T07:41:15.872Z,4.10
2019-03-06T07:44:07.594Z,4.13
2019-03-06T07:47:01.194Z,4.10
2019-03-06T07:49:44.970Z,3.80
2019-03-06T07:52:30.178Z,3.97
2019-03-06T07:55:16.155Z,4.73
2019-03-06T07:58:21.243Z,4.20
2019-03-06T08:00:51.357Z,4.93
2019-03-06T08:03:46.229Z,4.93
2019-03-06T08:06:17.398Z,4.73
2019-03-06T08:08:47.055Z,4.47
2019-03-06T08:11:30.726Z,5.03
2019-03-06T08:14:06.102Z,5.33
2019-03-06T08:17:00.869Z,5.60
2019-03-06T08:19:56.619Z,6.40
2019-03-06T08:22:37.598Z,6.73
2019-03-06T08:25:20.033Z,6.57
2019-03-06T08:27:49.910Z,6.50
2019-03-06T08:30:19.629Z,6.47
2019-03-06T08:32:49.426Z,6.40
2019-03-06T08:35:19.125Z,6.37
2019-03-06T08:37:48.791Z,6.97
2019-03-06T08:40:18.445Z,6.70
2019-03-06T08:42:48.285Z,6.17
2019-03-06T08:45:21.265Z,6.33
2019-03-06T08:48:00.455Z,6.37
2019-03-06T08:50:54.455Z,6.90
2019-03-06T08:53:29.686Z,7.00
2019-03-06T08:56:17.494Z,7.23
2019-03-06T08:59:06.377Z,7.00
2019-03-06T09:02:15.793Z,6.07
2019-03-06T09:05:01.815Z,6.63
2019-03-06T09:07:59.811Z,5.80
2019-03-06T09:11:03.706Z,5.60
2019-03-06T09:13:53.769Z,5.77
2019-03-06T09:16:38.097Z,4.83
2019-03-06T09:19:29.614Z,6.00
2019-03-06T09:22:15.375Z,5.50
2019-03-06T09:25:06.751Z,5.93
2019-03-06T09:27:52.205Z,5.60
2019-03-06T09:30:39.387Z,5.62
2019-03-06T09:33:28.202Z,4.78
2019-03-06T09:36:11.998Z,4.80
2019-03-06T09:38:59.537Z,3.42
2019-03-06T09:41:44.530Z,2.58
2019-03-06T09:44:34.621Z,3.50
2019-03-06T09:47:35.009Z,3.50
2019-03-06T09:50:26.842Z,4.30
2019-03-06T09:53:14.349Z,4.47
2019-03-06T09:55:59.037Z,4.15
2019-03-06T09:58:39.371Z,4.45
2019-03-06T10:01:18.481Z,3.75
2019-03-06T10:03:59.455Z,3.67
2019-03-06T10:06:42.511Z,3.75
2019-03-06T10:09:36.445Z,3.90
2019-03-06T10:12:34.080Z,3.75
2019-03-06T10:15:28.673Z,3.33
2019-03-06T10:18:04.954Z,3.58
2019-03-06T10:20:34.734Z,4.00
2019-03-06T10:23:04.630Z,4.00
2019-03-06T10:25:34.347Z,3.17
2019-03-06T10:28:06.571Z,3.10
2019-03-06T10:30:35.608Z,2.80
2019-03-06T10:33:05.330Z,2.80
2019-03-06T10:35:35.137Z,3.25
2019-03-06T10:38:05.000Z,2.47
2019-03-06T10:40:34.799Z,2.52
2019-03-06T10:43:05.164Z,2.70
2019-03-06T10:45:41.331Z,2.72
2019-03-06T10:48:06.298Z,2.95
2019-03-06T10:50:36.235Z,2.83
2019-03-06T10:53:05.972Z,2.70
2019-03-06T10:55:36.106Z,2.25
2019-03-06T10:58:06.562Z,2.77
2019-03-06T11:00:40.521Z,2.40
2019-03-06T11:03:10.340Z,2.10
2019-03-06T11:05:40.221Z,2.15
2019-03-06T11:08:09.984Z,2.25
2019-03-06T11:10:42.141Z,2.50
2019-03-06T11:13:12.606Z,2.02
2019-03-06T11:15:42.578Z,2.08
2019-03-06T11:18:12.654Z,2.20
2019-03-06T11:20:43.077Z,2.62
2019-03-06T11:23:13.186Z,3.10
2019-03-06T11:25:43.551Z,2.58
2019-03-06T11:28:15.407Z,2.33
2019-03-06T11:30:48.905Z,2.45
2019-03-06T11:33:20.051Z,2.47
2019-03-06T11:35:51.231Z,2.62
2019-03-06T11:38:21.998Z,2.50
2019-03-06T11:40:52.137Z,2.90
2019-03-06T11:43:21.990Z,2.40
2019-03-06T11:45:51.636Z,2.45
2019-03-06T11:48:21.542Z,2.10
2019-03-06T11:50:51.229Z,2.40
2019-03-06T11:53:21.270Z,2.47
2019-03-06T11:55:51.060Z,2.20
2019-03-06T11:58:21.136Z,2.20
2019-03-06T12:00:50.887Z,2.15
2019-03-06T12:03:22.071Z,2.10
2019-03-06T12:05:52.136Z,2.10
2019-03-06T12:08:22.101Z,2.12
2019-03-06T12:10:52.625Z,2.20
2019-03-06T12:13:22.439Z,2.20
2019-03-06T12:15:53.032Z,2.37
2019-03-06T12:18:23.902Z,2.35
2019-03-06T12:20:54.350Z,2.10
2019-03-06T12:23:24.314Z,2.40
2019-03-06T12:25:54.098Z,2.22
2019-03-06T12:28:23.952Z,2.10
2019-03-06T12:30:53.906Z,2.30
2019-03-06T12:33:25.933Z,1.90
2019-03-06T12:35:55.667Z,2.30
2019-03-06T12:38:25.541Z,2.55
2019-03-06T12:40:55.367Z,2.35
2019-03-06T12:43:25.350Z,2.33
2019-03-06T12:46:23.897Z,2.58
2019-03-06T12:49:17.289Z,2.90
2019-03-06T12:51:54.132Z,3.42
2019-03-06T12:54:18.609Z,2.60
2019-03-06T12:56:48.414Z,2.83
2019-03-06T12:59:18.170Z,2.58
2019-03-06T13:01:48.167Z,2.67
2019-03-06T13:04:20.688Z,2.67
2019-03-06T13:06:50.383Z,2.60
2019-03-06T13:09:20.895Z,2.50
2019-03-06T13:11:50.595Z,2.47
2019-03-06T13:14:20.393Z,2.40
2019-03-06T13:16:50.314Z,2.30
2019-03-06T13:19:20.160Z,2.05
2019-03-06T13:21:51.513Z,2.00
2019-03-06T13:24:21.178Z,2.30
2019-03-06T13:26:50.935Z,2.17
2019-03-06T13:29:20.923Z,2.83
2019-03-06T13:31:50.791Z,2.50
2019-03-06T13:34:33.033Z,2.52
2019-03-06T13:37:02.833Z,2.50
2019-03-06T13:39:32.622Z,2.55
2019-03-06T13:42:02.434Z,3.20
2019-03-06T13:44:32.186Z,2.10
2019-03-06T13:47:01.969Z,2.83
2019-03-06T13:49:31.704Z,3.02
2019-03-06T13:52:01.488Z,2.98
2019-03-06T13:54:31.510Z,3.15
2019-03-06T13:57:01.344Z,3.50
2019-03-06T13:59:31.459Z,4.05
2019-03-06T14:02:01.526Z,4.40
2019-03-06T14:04:31.508Z,4.15
2019-03-06T14:07:01.372Z,4.05
2019-03-06T14:09:31.340Z,4.58
2019-03-06T14:12:01.323Z,4.78
2019-03-06T14:14:31.077Z,4.50
2019-03-06T14:17:01.058Z,4.28
2019-03-06T14:19:30.808Z,4.80
2019-03-06T14:22:01.011Z,4.55
2019-03-06T14:24:31.048Z,5.27
2019-03-06T14:27:00.842Z,5.22
2019-03-06T14:29:30.569Z,5.62
2019-03-06T14:32:00.349Z,5.65
2019-03-06T14:34:30.177Z,5.67
2019-03-06T14:37:02.261Z,5.85
2019-03-06T14:39:32.437Z,5.97
2019-03-06T14:42:02.934Z,6.33
2019-03-06T14:44:32.710Z,7.90
2019-03-06T14:47:03.216Z,6.93
2019-03-06T14:49:33.289Z,7.00
2019-03-06T14:52:07.243Z,6.20
2019-03-06T14:54:34.699Z,7.07
2019-03-06T14:57:04.538Z,7.80
2019-03-06T14:59:34.251Z,7.47
2019-03-06T15:02:04.087Z,7.73
2019-03-06T15:04:33.882Z,7.93
2019-03-06T15:07:03.581Z,8.10
2019-03-06T15:09:33.377Z,7.83
2019-03-06T15:12:03.106Z,8.53
2019-03-06T15:14:36.210Z,8.17
2019-03-06T15:17:04.425Z,8.27
2019-03-06T15:19:34.449Z,8.27
2019-03-06T15:22:04.446Z,9.07
2019-03-06T15:24:40.947Z,8.07
2019-03-06T15:27:05.723Z,9.20
2019-03-06T15:29:35.373Z,8.97
2019-03-06T15:32:06.481Z,9.13
2019-03-06T15:34:36.314Z,8.20
2019-03-06T15:37:06.099Z,8.33
2019-03-06T15:39:44.490Z,8.60
2019-03-06T15:42:12.823Z,8.83
2019-03-06T15:44:42.578Z,9.10
2019-03-06T15:47:12.345Z,8.97
2019-03-06T15:49:42.195Z,9.27
2019-03-06T15:52:12.656Z,8.43
2019-03-06T15:54:42.533Z,8.50
2019-03-06T15:57:12.306Z,8.80
2019-03-06T15:59:42.218Z,8.30
2019-03-06T16:02:12.092Z,8.40
2019-03-06T16:04:41.793Z,8.83
2019-03-06T16:07:12.143Z,8.00
2019-03-06T16:09:42.092Z,8.80
2019-03-06T16:12:12.375Z,8.20
2019-03-06T16:14:42.817Z,8.07
2019-03-06T16:17:12.924Z,7.57
2019-03-06T16:19:42.857Z,7.53
2019-03-06T16:22:13.193Z,7.80
2019-03-06T16:24:42.929Z,7.93
2019-03-06T16:27:12.762Z,8.20
2019-03-06T16:29:42.653Z,7.53
2019-03-06T16:32:12.491Z,8.20
2019-03-06T16:34:42.393Z,7.87
2019-03-06T16:37:12.186Z,7.07
2019-03-06T16:39:41.923Z,7.37
2019-03-06T16:42:11.630Z,7.50
2019-03-06T16:44:41.833Z,8.17
2019-03-06T16:47:13.207Z,7.77
2019-03-06T16:49:43.309Z,7.23
2019-03-06T16:52:14.027Z,7.37
2019-03-06T16:54:43.736Z,7.00
2019-03-06T16:57:13.627Z,6.93
2019-03-06T16:59:43.383Z,6.40
2019-03-06T17:02:14.066Z,6.10
2019-03-06T17:04:43.990Z,5.67
2019-03-06T17:07:13.991Z,5.43
2019-03-06T17:09:43.876Z,6.80
2019-03-06T17:12:14.388Z,5.10
2019-03-06T17:14:44.190Z,6.03
2019-03-06T17:17:14.197Z,5.67
2019-03-06T17:19:44.074Z,6.00
2019-03-06T17:22:13.793Z,6.23
2019-03-06T17:24:43.603Z,6.13
2019-03-06T17:27:13.470Z,6.40
2019-03-06T17:29:45.486Z,7.13
2019-03-06T17:32:15.238Z,6.10
2019-03-06T17:34:45.093Z,6.00
2019-03-06T17:37:14.913Z,5.80
2019-03-06T17:39:44.754Z,5.97
2019-03-06T17:42:16.989Z,5.13
2019-03-06T17:44:46.666Z,5.97
2019-03-06T17:47:17.259Z,5.67
2019-03-06T17:49:47.050Z,5.70
2019-03-06T17:52:16.828Z,6.37
2019-03-06T17:54:46.515Z,5.83
2019-03-06T17:57:16.414Z,5.67
2019-03-06T17:59:46.072Z,6.47
2019-03-06T18:02:15.909Z,5.80
2019-03-06T18:04:45.669Z,5.97
2019-03-06T18:07:15.431Z,6.10
2019-03-06T18:09:45.403Z,5.67
2019-03-06T18:12:16.144Z,6.03
2019-03-06T18:14:46.181Z,6.37
2019-03-06T18:17:15.903Z,5.77
2019-03-06T18:19:45.746Z,5.83
2019-03-06T18:22:15.525Z,6.00
2019-03-06T18:24:45.310Z,5.43
2019-03-06T18:27:15.170Z,6.20
2019-03-06T18:29:44.957Z,6.20
2019-03-06T18:32:14.786Z,6.23
2019-03-06T18:34:44.461Z,5.80
2019-03-06T18:37:14.210Z,6.47
2019-03-06T18:39:44.103Z,6.10
2019-03-06T18:42:13.994Z,6.07
2019-03-06T18:44:45.394Z,6.20
2019-03-06T18:47:15.253Z,6.43
2019-03-06T18:49:45.066Z,5.80
2019-03-06T18:52:15.229Z,7.00
2019-03-06T18:54:46.778Z,6.40
2019-03-06T18:57:16.638Z,6.07
2019-03-06T18:59:46.455Z,6.67
2019-03-06T19:02:16.331Z,6.57
2019-03-06T19:04:48.471Z,6.07
2019-03-06T19:07:18.223Z,7.10
2019-03-06T19:09:48.353Z,6.80
2019-03-06T19:12:18.803Z,6.30
2019-03-06T19:14:50.856Z,6.50
2019-03-06T19:17:20.640Z,6.93
2019-03-06T19:19:50.546Z,6.20
2019-03-06T19:22:20.366Z,6.53
2019-03-06T19:24:50.139Z,6.00
2019-03-06T19:27:19.858Z,5.90
2019-03-06T19:29:51.517Z,6.47
2019-03-06T19:32:21.652Z,6.37
2019-03-06T19:34:51.442Z,7.00
2019-03-06T19:37:21.305Z,6.63
2019-03-06T19:39:51.104Z,6.40
2019-03-06T19:42:20.853Z,6.70
2019-03-06T19:44:50.665Z,6.63
2019-03-06T19:47:20.651Z,7.10
2019-03-06T19:49:50.469Z,6.83
2019-03-06T19:52:20.213Z,6.90
2019-03-06T19:54:50.084Z,6.63
2019-03-06T19:57:19.801Z,6.77
2019-03-06T19:59:49.466Z,7.10
2019-03-06T20:02:19.705Z,7.47
2019-03-06T20:04:52.227Z,7.77
2019-03-06T20:07:21.951Z,6.47
2019-03-06T20:09:51.765Z,6.83
2019-03-06T20:12:21.643Z,6.77
2019-03-06T20:14:51.410Z,7.30
2019-03-06T20:17:21.163Z,7.07
2019-03-06T20:19:50.928Z,6.67
2019-03-06T20:22:22.693Z,6.63
2019-03-06T20:24:52.101Z,7.47
2019-03-06T20:27:21.918Z,6.73
2019-03-06T20:29:53.211Z,7.17
2019-03-06T20:32:23.093Z,7.50
2019-03-06T20:34:52.997Z,6.87
2019-03-06T20:37:22.638Z,7.63
2019-03-06T20:39:52.446Z,6.93
2019-03-06T20:42:22.207Z,7.50
2019-03-06T20:44:52.265Z,8.20
2019-03-06T20:47:21.894Z,7.07
2019-03-06T20:49:51.692Z,7.00
2019-03-06T20:52:21.483Z,7.03
2019-03-06T20:54:51.279Z,7.17
2019-03-06T20:57:20.974Z,6.60
2019-03-06T20:59:50.742Z,7.30
2019-03-06T21:02:20.509Z,6.53
2019-03-06T21:04:50.234Z,6.63
2019-03-06T21:07:19.909Z,6.63
2019-03-06T21:09:49.678Z,6.40
2019-03-06T21:12:19.521Z,7.20
2019-03-06T21:14:49.229Z,6.80
2019-03-06T21:17:19.008Z,6.73
2019-03-06T21:19:49.106Z,6.43
2019-03-06T21:22:18.870Z,6.13
2019-03-06T21:24:48.538Z,6.13
2019-03-06T21:27:18.285Z,5.93
2019-03-06T21:29:48.080Z,6.40
2019-03-06T21:32:17.757Z,6.17
2019-03-06T21:34:47.788Z,6.43
2019-03-06T21:37:17.545Z,6.17
2019-03-06T21:39:47.326Z,5.03
2019-03-06T21:42:17.151Z,5.53
2019-03-06T21:44:46.913Z,5.93
2019-03-06T21:47:16.699Z,5.97
2019-03-06T21:49:46.757Z,5.57
2019-03-06T21:52:16.471Z,5.67
2019-03-06T21:54:46.285Z,5.73
2019-03-06T21:57:16.047Z,6.10
2019-03-06T21:59:45.929Z,5.77
2019-03-06T22:02:15.762Z,5.67
2019-03-06T22:04:45.763Z,5.40
2019-03-06T22:07:15.590Z,5.97
2019-03-06T22:09:45.358Z,5.90
2019-03-06T22:12:15.149Z,6.07
2019-03-06T22:14:44.795Z,5.87
2019-03-06T22:17:14.626Z,5.60
2019-03-06T22:19:44.526Z,6.07
2019-03-06T22:22:15.858Z,5.40
2019-03-06T22:24:45.560Z,5.70
2019-03-06T22:27:15.300Z,6.50
2019-03-06T22:29:45.055Z,5.40
2019-03-06T22:32:14.828Z,5.10
2019-03-06T22:34:44.577Z,5.40
2019-03-06T22:37:14.227Z,4.63
2019-03-06T22:39:44.032Z,6.17
2019-03-06T22:42:13.730Z,6.00
2019-03-06T22:44:44.259Z,5.10
2019-03-06T22:47:14.017Z,5.10
2019-03-06T22:49:43.642Z,6.00
2019-03-06T22:52:13.513Z,5.57
2019-03-06T22:54:43.306Z,5.37
2019-03-06T22:57:13.066Z,5.17
2019-03-06T22:59:43.285Z,4.80
2019-03-06T23:02:13.278Z,4.73
2019-03-06T23:04:43.097Z,4.73
2019-03-06T23:07:12.814Z,5.40
2019-03-06T23:09:42.629Z,5.03
2019-03-06T23:12:12.360Z,4.63
2019-03-06T23:14:42.146Z,5.50
2019-03-06T23:17:11.938Z,5.10
2019-03-06T23:19:41.786Z,4.63
2019-03-06T23:22:11.529Z,4.90
2019-03-06T23:24:41.254Z,4.40
2019-03-06T23:27:10.987Z,5.00
2019-03-06T23:29:40.768Z,5.00
2019-03-06T23:32:10.501Z,4.93
2019-03-06T23:34:40.212Z,4.30
2019-03-06T23:37:09.914Z,5.17
2019-03-06T23:39:40.099Z,5.00
2019-03-06T23:42:09.863Z,4.60
2019-03-06T23:44:39.587Z,4.57
2019-03-06T23:47:09.315Z,4.70
2019-03-06T23:49:39.211Z,5.40
2019-03-06T23:52:15.051Z,4.27
2019-03-06T23:54:46.735Z,4.83
2019-03-06T23:57:18.935Z,6.27
2019-03-06T23:59:48.870Z,5.23
